createdAt,value
2022-09-17T00:01:26.346Z,1.50
2022-09-17T00:03:56.578Z,1.43
2022-09-17T00:06:26.113Z,1.40
2022-09-17T00:08:54.821Z,1.43
2022-09-17T00:11:26.043Z,1.27
2022-09-17T00:13:55.498Z,1.30
2022-09-17T00:16:26.719Z,1.20
2022-09-17T00:18:55.329Z,1.20
2022-09-17T00:21:23.886Z,1.30
2022-09-17T00:23:56.107Z,1.43
2022-09-17T00:26:25.648Z,1.50
2022-09-17T00:28:54.714Z,1.67
2022-09-17T00:31:23.403Z,1.40
2022-09-17T00:33:51.807Z,1.27
2022-09-17T00:36:20.599Z,1.43
2022-09-17T00:38:50.716Z,1.37
2022-09-17T00:41:19.255Z,1.40
2022-09-17T00:43:50.923Z,1.50
2022-09-17T00:46:27.877Z,1.57
2022-09-17T00:48:58.193Z,1.30
2022-09-17T00:51:31.888Z,1.70
2022-09-17T00:54:01.718Z,1.70
2022-09-17T00:56:33.087Z,1.40
2022-09-17T00:59:02.525Z,1.50
2022-09-17T01:01:30.477Z,1.40
2022-09-17T01:03:58.320Z,1.50
2022-09-17T01:06:33.894Z,1.63
2022-09-17T01:09:16.615Z,1.30
2022-09-17T01:12:04.865Z,1.50
2022-09-17T01:14:45.541Z,1.53
2022-09-17T01:17:21.168Z,1.40
2022-09-17T01:20:10.860Z,1.80
2022-09-17T01:22:52.082Z,1.30
2022-09-17T01:25:25.585Z,1.43
2022-09-17T01:28:12.933Z,2.23
2022-09-17T01:31:05.954Z,1.77
2022-09-17T01:33:42.034Z,1.50
2022-09-17T01:36:23.373Z,1.40
2022-09-17T01:38:58.935Z,1.43
2022-09-17T01:41:33.603Z,1.73
2022-09-17T01:44:07.300Z,1.50
2022-09-17T01:46:41.494Z,1.60
2022-09-17T01:49:12.477Z,1.50
2022-09-17T01:51:45.943Z,1.70
2022-09-17T01:54:18.671Z,1.30
2022-09-17T01:56:51.030Z,1.63
2022-09-17T01:59:23.522Z,1.50
2022-09-17T02:01:58.372Z,1.40
2022-09-17T02:04:30.412Z,1.50
2022-09-17T02:07:02.424Z,1.20
2022-09-17T02:09:36.597Z,1.23
2022-09-17T02:12:09.521Z,1.13
2022-09-17T02:14:40.569Z,1.50
2022-09-17T02:17:15.386Z,1.10
2022-09-17T02:19:43.927Z,1.20
2022-09-17T02:22:21.412Z,1.30
2022-09-17T02:24:58.507Z,1.23
2022-09-17T02:27:35.926Z,1.30
2022-09-17T02:30:04.705Z,1.70
2022-09-17T02:32:34.494Z,1.40
2022-09-17T02:35:02.337Z,1.20
2022-09-17T02:37:30.103Z,1.30
2022-09-17T02:39:58.002Z,1.30
2022-09-17T02:42:36.685Z,1.63
2022-09-17T02:45:11.939Z,1.20
2022-09-17T02:47:53.656Z,1.40
2022-09-17T02:50:48.250Z,1.77
2022-09-17T02:53:31.564Z,1.40
2022-09-17T02:56:07.908Z,1.17
2022-09-17T02:58:42.073Z,1.20
2022-09-17T03:01:17.448Z,1.30
2022-09-17T03:03:50.213Z,1.13
2022-09-17T03:06:18.428Z,1.00
2022-09-17T03:08:47.502Z,1.00
2022-09-17T03:11:15.441Z,1.13
2022-09-17T03:13:43.462Z,1.30
2022-09-17T03:16:11.606Z,1.10
2022-09-17T03:18:39.426Z,0.93
2022-09-17T03:21:08.568Z,1.20
2022-09-17T03:23:36.310Z,1.20
2022-09-17T03:26:04.078Z,1.00
2022-09-17T03:28:31.835Z,1.67
2022-09-17T03:30:59.976Z,1.10
2022-09-17T03:33:27.779Z,1.13
2022-09-17T03:35:55.533Z,1.50
2022-09-17T03:38:25.045Z,1.10
2022-09-17T03:40:59.918Z,1.40
2022-09-17T03:43:27.875Z,1.10
2022-09-17T03:45:55.674Z,1.27
2022-09-17T03:48:23.839Z,1.50
2022-09-17T03:50:51.599Z,1.20
2022-09-17T03:53:19.370Z,1.30
2022-09-17T03:55:48.455Z,1.10
2022-09-17T03:58:16.208Z,1.57
2022-09-17T04:00:43.958Z,1.30
2022-09-17T04:03:11.717Z,1.40
2022-09-17T04:05:39.491Z,1.30
2022-09-17T04:08:07.252Z,1.27
2022-09-17T04:10:35.031Z,1.27
2022-09-17T04:13:04.289Z,1.40
2022-09-17T04:15:32.041Z,1.20
2022-09-17T04:18:00.149Z,1.33
2022-09-17T04:20:28.334Z,1.20
2022-09-17T04:22:56.456Z,1.30
2022-09-17T04:25:24.524Z,1.37
2022-09-17T04:27:52.503Z,1.17
2022-09-17T04:30:21.687Z,1.40
2022-09-17T04:32:49.452Z,1.23
2022-09-17T04:35:17.628Z,1.10
2022-09-17T04:37:52.599Z,1.23
2022-09-17T04:40:20.513Z,1.23
2022-09-17T04:42:48.501Z,1.20
2022-09-17T04:45:16.374Z,1.20
2022-09-17T04:47:45.465Z,2.40
2022-09-17T04:50:13.267Z,1.40
2022-09-17T04:52:43.935Z,1.50
2022-09-17T04:55:11.927Z,1.50
2022-09-17T04:57:39.828Z,1.50
2022-09-17T05:00:09.940Z,1.60
2022-09-17T05:02:37.783Z,1.47
2022-09-17T05:05:07.377Z,1.57
2022-09-17T05:07:35.108Z,1.57
2022-09-17T05:10:02.924Z,1.70
2022-09-17T05:12:34.332Z,1.77
2022-09-17T05:15:03.033Z,1.67
2022-09-17T05:17:30.822Z,1.83
2022-09-17T05:19:58.662Z,1.77
2022-09-17T05:22:27.727Z,2.10
2022-09-17T05:24:55.495Z,1.93
2022-09-17T05:27:23.277Z,2.47
2022-09-17T05:29:51.018Z,2.07
2022-09-17T05:32:18.796Z,2.30
2022-09-17T05:34:46.535Z,1.97
2022-09-17T05:37:14.391Z,3.60
2022-09-17T05:39:43.487Z,2.07
2022-09-17T05:42:11.236Z,2.10
2022-09-17T05:44:38.980Z,2.20
2022-09-17T05:47:06.815Z,1.73
2022-09-17T05:49:34.587Z,2.10
2022-09-17T05:52:03.558Z,2.57
2022-09-17T05:54:31.355Z,2.40
2022-09-17T05:57:01.668Z,2.73
2022-09-17T05:59:29.486Z,2.47
2022-09-17T06:01:57.246Z,2.50
2022-09-17T06:04:25.064Z,2.10
2022-09-17T06:06:52.801Z,1.70
2022-09-17T06:09:21.008Z,2.50
2022-09-17T06:11:48.752Z,2.07
2022-09-17T06:14:17.850Z,1.90
2022-09-17T06:16:45.672Z,2.20
2022-09-17T06:19:13.517Z,2.30
2022-09-17T06:21:41.242Z,2.43
2022-09-17T06:24:10.610Z,2.30
2022-09-17T06:26:38.366Z,2.70
2022-09-17T06:29:06.159Z,2.13
2022-09-17T06:31:35.357Z,2.37
2022-09-17T06:34:05.525Z,2.30
2022-09-17T06:36:33.257Z,2.40
2022-09-17T06:39:01.223Z,2.07
2022-09-17T06:41:28.946Z,2.30
2022-09-17T06:43:56.995Z,2.57
2022-09-17T06:46:24.808Z,2.20
2022-09-17T06:48:54.181Z,2.47
2022-09-17T06:51:22.621Z,1.80
2022-09-17T06:53:50.514Z,2.00
2022-09-17T06:56:18.438Z,1.83
2022-09-17T06:58:46.890Z,2.20
2022-09-17T07:01:15.481Z,1.67
2022-09-17T07:03:44.314Z,2.43
2022-09-17T07:06:13.488Z,1.40
2022-09-17T07:08:41.519Z,2.03
2022-09-17T07:11:09.272Z,2.10
2022-09-17T07:13:37.246Z,1.93
2022-09-17T07:16:06.344Z,1.93
2022-09-17T07:18:34.369Z,2.10
2022-09-17T07:21:03.084Z,2.33
2022-09-17T07:23:33.608Z,1.83
2022-09-17T07:26:03.342Z,1.60
2022-09-17T07:28:31.259Z,1.87
2022-09-17T07:30:59.123Z,1.77
2022-09-17T07:33:28.636Z,2.27
2022-09-17T07:35:57.240Z,2.10
2022-09-17T07:38:26.331Z,2.37
2022-09-17T07:40:58.352Z,2.03
2022-09-17T07:43:26.844Z,2.00
2022-09-17T07:45:55.458Z,1.70
2022-09-17T07:48:23.331Z,2.20
2022-09-17T07:50:51.339Z,1.60
2022-09-17T07:53:19.225Z,2.00
2022-09-17T07:55:53.237Z,1.93
2022-09-17T07:58:22.903Z,3.53
2022-09-17T08:00:50.942Z,2.37
2022-09-17T08:03:18.773Z,2.00
2022-09-17T08:05:47.968Z,2.73
2022-09-17T08:08:20.356Z,1.80
2022-09-17T08:10:48.968Z,2.20
2022-09-17T08:13:16.740Z,1.90
2022-09-17T08:15:45.854Z,2.03
2022-09-17T08:18:16.545Z,1.80
2022-09-17T08:20:44.294Z,1.37
2022-09-17T08:23:12.063Z,1.40
2022-09-17T08:25:39.823Z,1.90
2022-09-17T08:28:07.580Z,2.87
2022-09-17T08:30:35.390Z,2.50
2022-09-17T08:33:04.591Z,2.43
2022-09-17T08:35:32.534Z,2.43
2022-09-17T08:38:00.360Z,1.70
2022-09-17T08:40:28.522Z,1.80
2022-09-17T08:43:01.594Z,1.70
2022-09-17T08:45:30.468Z,1.60
2022-09-17T08:48:06.919Z,1.53
2022-09-17T08:50:39.053Z,1.40
2022-09-17T08:53:24.223Z,1.67
2022-09-17T08:55:59.931Z,1.60
2022-09-17T08:58:42.662Z,1.50
2022-09-17T09:01:23.797Z,1.90
2022-09-17T09:04:18.454Z,1.70
2022-09-17T09:06:50.352Z,1.83
2022-09-17T09:09:21.217Z,1.50
2022-09-17T09:11:51.656Z,1.40
2022-09-17T09:14:23.665Z,2.50
2022-09-17T09:16:53.732Z,1.57
2022-09-17T09:19:25.487Z,1.30
2022-09-17T09:22:04.200Z,1.40
2022-09-17T09:24:41.663Z,1.30
2022-09-17T09:27:18.172Z,1.60
2022-09-17T09:29:58.498Z,1.63
2022-09-17T09:32:39.586Z,1.50
2022-09-17T09:35:19.128Z,1.30
2022-09-17T09:37:55.170Z,2.03
2022-09-17T09:40:34.975Z,1.40
2022-09-17T09:43:11.913Z,1.50
2022-09-17T09:45:56.134Z,1.70
2022-09-17T09:48:35.491Z,2.17
2022-09-17T09:51:15.767Z,1.90
2022-09-17T09:53:57.838Z,2.63
2022-09-17T09:56:37.920Z,1.67
2022-09-17T09:59:08.651Z,1.90
2022-09-17T10:01:41.696Z,1.60
2022-09-17T10:04:19.470Z,1.60
2022-09-17T10:06:50.564Z,1.40
2022-09-17T10:09:22.057Z,1.50
2022-09-17T10:12:15.934Z,1.47
2022-09-17T10:14:44.806Z,1.97
2022-09-17T10:17:17.411Z,1.70
2022-09-17T10:19:46.390Z,1.90
2022-09-17T10:22:28.042Z,1.90
2022-09-17T10:24:57.718Z,1.50
2022-09-17T10:27:27.005Z,1.90
2022-09-17T10:30:04.050Z,1.87
2022-09-17T10:32:32.096Z,1.47
2022-09-17T10:35:04.323Z,2.60
2022-09-17T10:37:44.278Z,1.40
2022-09-17T10:40:32.273Z,1.60
2022-09-17T10:43:22.195Z,1.67
2022-09-17T10:45:58.758Z,2.13
2022-09-17T10:48:29.771Z,1.93
2022-09-17T10:50:58.384Z,1.53
2022-09-17T10:53:28.240Z,1.90
2022-09-17T10:56:06.955Z,1.80
2022-09-17T10:58:53.855Z,2.00
2022-09-17T11:01:36.182Z,2.00
2022-09-17T11:04:29.254Z,1.87
2022-09-17T11:07:16.726Z,1.77
2022-09-17T11:09:54.438Z,1.60
2022-09-17T11:12:36.442Z,1.40
2022-09-17T11:15:12.574Z,1.93
2022-09-17T11:17:54.079Z,2.20
2022-09-17T11:20:33.474Z,1.73
2022-09-17T11:23:16.382Z,2.00
2022-09-17T11:25:55.210Z,3.93
2022-09-17T11:28:42.583Z,2.90
2022-09-17T11:31:24.459Z,2.30
2022-09-17T11:34:20.914Z,2.10
2022-09-17T11:36:54.623Z,1.43
2022-09-17T11:39:27.108Z,1.63
2022-09-17T11:41:59.184Z,1.43
2022-09-17T11:44:32.623Z,1.43
2022-09-17T11:47:09.505Z,1.60
2022-09-17T11:49:43.127Z,1.17
2022-09-17T11:52:14.531Z,1.20
2022-09-17T11:54:48.759Z,1.30
2022-09-17T11:57:20.374Z,1.37
2022-09-17T11:59:53.532Z,1.40
2022-09-17T12:02:27.461Z,1.70
2022-09-17T12:05:02.185Z,1.60
2022-09-17T12:07:39.819Z,1.90
2022-09-17T12:10:26.705Z,1.30
2022-09-17T12:13:00.829Z,1.80
2022-09-17T12:15:31.557Z,1.67
2022-09-17T12:18:31.181Z,1.73
2022-09-17T12:21:01.131Z,1.27
2022-09-17T12:23:38.709Z,1.60
2022-09-17T12:26:18.483Z,2.00
2022-09-17T12:28:58.696Z,1.30
2022-09-17T12:31:36.771Z,2.77
2022-09-17T12:34:21.052Z,2.90
2022-09-17T12:36:56.377Z,1.90
2022-09-17T12:39:57.840Z,1.30
2022-09-17T12:42:43.924Z,1.70
2022-09-17T12:45:26.271Z,2.10
2022-09-17T12:48:16.805Z,2.13
2022-09-17T12:50:59.864Z,1.60
2022-09-17T12:53:31.669Z,1.40
2022-09-17T12:56:17.191Z,1.20
2022-09-17T12:58:58.227Z,1.97
2022-09-17T13:01:32.659Z,2.47
2022-09-17T13:04:13.809Z,2.47
2022-09-17T13:07:03.571Z,1.30
2022-09-17T13:10:04.719Z,1.63
2022-09-17T13:12:38.411Z,1.10
2022-09-17T13:15:47.388Z,1.40
2022-09-17T13:18:27.030Z,1.47
2022-09-17T13:21:08.105Z,1.10
2022-09-17T13:23:40.722Z,1.40
2022-09-17T13:26:09.616Z,1.40
2022-09-17T13:28:42.244Z,1.60
2022-09-17T13:31:15.222Z,1.80
2022-09-17T13:33:58.778Z,1.70
2022-09-17T13:36:49.523Z,1.70
2022-09-17T13:39:41.493Z,1.40
2022-09-17T13:42:17.220Z,1.27
2022-09-17T13:44:50.728Z,1.50
2022-09-17T13:47:26.475Z,1.77
2022-09-17T13:50:00.314Z,2.20
2022-09-17T13:52:37.255Z,1.63
2022-09-17T13:55:06.636Z,1.50
2022-09-17T13:57:47.267Z,1.40
2022-09-17T14:00:48.697Z,1.57
2022-09-17T14:03:52.569Z,1.13
2022-09-17T14:06:59.561Z,1.30
2022-09-17T14:09:50.578Z,1.40
2022-09-17T14:12:56.104Z,1.93
2022-09-17T14:15:55.171Z,3.97
2022-09-17T14:18:38.768Z,3.13
2022-09-17T14:21:14.459Z,2.40
2022-09-17T14:23:47.031Z,1.40
2022-09-17T14:26:24.943Z,2.67
2022-09-17T14:29:03.243Z,2.20
2022-09-17T14:31:35.208Z,1.60
2022-09-17T14:34:05.647Z,4.43
2022-09-17T14:36:36.796Z,4.67
2022-09-17T14:39:09.912Z,3.10
2022-09-17T14:41:42.879Z,1.70
2022-09-17T14:44:16.289Z,2.50
2022-09-17T14:46:49.936Z,1.80
2022-09-17T14:49:22.666Z,1.47
2022-09-17T14:51:50.936Z,2.20
2022-09-17T14:54:24.825Z,1.80
2022-09-17T14:56:59.738Z,1.60
2022-09-17T14:59:45.579Z,1.50
2022-09-17T15:02:32.589Z,1.90
2022-09-17T15:05:03.841Z,1.20
2022-09-17T15:07:31.634Z,1.50
2022-09-17T15:10:13.463Z,1.07
2022-09-17T15:12:44.817Z,1.13
2022-09-17T15:15:21.139Z,0.93
2022-09-17T15:17:49.985Z,1.20
2022-09-17T15:20:20.920Z,1.30
2022-09-17T15:22:56.692Z,1.90
2022-09-17T15:25:27.851Z,1.10
2022-09-17T15:27:59.048Z,1.10
2022-09-17T15:30:27.158Z,1.07
2022-09-17T15:32:56.594Z,0.90
2022-09-17T15:35:29.146Z,0.80
2022-09-17T15:40:47.200Z,1.03
2022-09-17T15:43:22.612Z,1.23
2022-09-17T15:45:50.420Z,1.63
2022-09-17T15:48:37.024Z,1.30
2022-09-17T15:51:07.077Z,1.30
2022-09-17T15:53:36.179Z,1.70
2022-09-17T15:56:07.123Z,1.70
2022-09-17T15:58:52.616Z,1.20
2022-09-17T16:01:53.406Z,1.43
2022-09-17T16:04:27.250Z,1.30
2022-09-17T16:07:00.155Z,1.40
2022-09-17T16:09:43.352Z,1.20
2022-09-17T16:12:14.406Z,1.20
2022-09-17T16:14:52.238Z,1.30
2022-09-17T16:17:27.957Z,1.27
2022-09-17T16:19:56.709Z,1.47
2022-09-17T16:22:26.251Z,1.60
2022-09-17T16:24:54.030Z,1.60
2022-09-17T16:27:25.667Z,2.10
2022-09-17T16:30:01.612Z,2.07
2022-09-17T16:32:29.548Z,1.70
2022-09-17T16:34:57.360Z,2.20
2022-09-17T16:37:25.227Z,1.93
2022-09-17T16:39:53.601Z,1.60
2022-09-17T16:42:21.427Z,1.80
2022-09-17T16:44:49.240Z,1.63
2022-09-17T16:47:18.468Z,1.60
2022-09-17T16:49:46.269Z,1.53
2022-09-17T16:52:14.061Z,1.60
2022-09-17T16:54:41.842Z,1.50
2022-09-17T16:57:09.632Z,1.53
2022-09-17T16:59:37.409Z,1.77
2022-09-17T17:02:05.587Z,1.80
2022-09-17T17:04:34.745Z,1.70
2022-09-17T17:07:02.535Z,1.50
2022-09-17T17:09:30.304Z,1.10
2022-09-17T17:11:58.092Z,1.53
2022-09-17T17:14:25.980Z,1.20
2022-09-17T17:16:53.754Z,1.43
2022-09-17T17:19:21.914Z,1.87
2022-09-17T17:21:52.733Z,2.57
2022-09-17T17:24:20.970Z,2.03
2022-09-17T17:26:49.457Z,1.60
2022-09-17T17:29:17.563Z,1.73
2022-09-17T17:31:45.567Z,1.90
2022-09-17T17:34:13.426Z,2.33
2022-09-17T17:36:41.220Z,1.80
2022-09-17T17:39:10.528Z,1.83
2022-09-17T17:41:38.445Z,1.73
2022-09-17T17:44:06.303Z,1.90
2022-09-17T17:46:34.165Z,2.00
2022-09-17T17:49:02.073Z,1.67
2022-09-17T17:51:29.874Z,1.63
2022-09-17T17:53:57.641Z,1.90
2022-09-17T17:56:26.815Z,2.27
2022-09-17T17:58:56.372Z,2.43
2022-09-17T18:01:26.214Z,5.00
2022-09-17T18:03:57.216Z,4.97
2022-09-17T18:06:25.094Z,2.70
2022-09-17T18:08:52.876Z,5.27
2022-09-17T18:11:21.530Z,3.80
2022-09-17T18:13:54.282Z,3.30
2022-09-17T18:16:23.092Z,2.97
2022-09-17T18:18:51.318Z,1.90
2022-09-17T18:21:20.715Z,2.00
2022-09-17T18:23:49.152Z,1.77
2022-09-17T18:26:18.308Z,2.00
2022-09-17T18:28:46.611Z,1.40
2022-09-17T18:31:24.600Z,1.60
2022-09-17T18:33:57.557Z,1.70
2022-09-17T18:36:26.134Z,1.70
2022-09-17T18:38:56.442Z,2.47
2022-09-17T18:41:24.212Z,1.30
2022-09-17T18:43:52.002Z,2.40
2022-09-17T18:46:21.135Z,1.67
2022-09-17T18:48:53.255Z,2.40
2022-09-17T18:51:21.747Z,1.73
2022-09-17T18:53:51.766Z,1.70
2022-09-17T18:56:21.046Z,1.70
2022-09-17T18:58:50.950Z,1.50
2022-09-17T19:01:22.387Z,1.70
2022-09-17T19:03:50.271Z,2.33
2022-09-17T19:06:18.491Z,1.37
2022-09-17T19:08:46.968Z,1.27
2022-09-17T19:11:14.998Z,1.57
2022-09-17T19:13:43.905Z,1.30
2022-09-17T19:16:13.452Z,1.90
2022-09-17T19:18:42.770Z,1.70
2022-09-17T19:21:13.423Z,2.07
2022-09-17T19:23:42.006Z,2.10
2022-09-17T19:26:11.368Z,1.80
2022-09-17T19:28:39.266Z,1.20
2022-09-17T19:31:08.309Z,1.33
2022-09-17T19:33:36.386Z,1.30
2022-09-17T19:36:09.797Z,1.13
2022-09-17T19:38:37.967Z,1.37
2022-09-17T19:41:07.657Z,2.60
2022-09-17T19:43:35.478Z,1.30
2022-09-17T19:46:04.212Z,1.67
2022-09-17T19:48:32.413Z,2.00
2022-09-17T19:51:00.441Z,1.53
2022-09-17T19:53:29.871Z,1.33
2022-09-17T19:55:57.636Z,1.60
2022-09-17T19:58:25.603Z,2.77
2022-09-17T20:00:56.174Z,2.50
2022-09-17T20:03:24.197Z,1.57
2022-09-17T20:05:58.867Z,1.87
2022-09-17T20:08:26.690Z,1.50
2022-09-17T20:10:56.159Z,1.10
2022-09-17T20:13:25.336Z,1.47
2022-09-17T20:15:53.152Z,2.90
2022-09-17T20:18:23.507Z,2.77
2022-09-17T20:20:51.735Z,1.60
2022-09-17T20:23:19.548Z,1.70
2022-09-17T20:25:52.598Z,1.27
2022-09-17T20:28:21.762Z,1.33
2022-09-17T20:30:49.592Z,1.20
2022-09-17T20:33:22.262Z,1.00
2022-09-17T20:35:58.702Z,1.17
2022-09-17T20:39:10.099Z,1.20
2022-09-17T20:41:15.422Z,1.30
2022-09-17T20:43:46.303Z,1.13
2022-09-17T20:46:14.575Z,1.30
2022-09-17T20:48:42.750Z,1.00
2022-09-17T20:51:13.439Z,1.07
2022-09-17T20:53:42.035Z,1.20
2022-09-17T20:56:11.323Z,1.37
2022-09-17T20:58:45.701Z,1.13
2022-09-17T21:01:17.789Z,1.20
2022-09-17T21:03:48.086Z,1.17
2022-09-17T21:06:20.595Z,1.00
2022-09-17T21:08:48.863Z,1.10
2022-09-17T21:11:17.575Z,1.27
2022-09-17T21:13:45.683Z,1.20
2022-09-17T21:16:15.896Z,1.47
2022-09-17T21:18:44.461Z,1.40
2022-09-17T21:21:13.962Z,1.00
2022-09-17T21:23:42.390Z,1.20
2022-09-17T21:26:14.700Z,1.27
2022-09-17T21:28:44.135Z,1.40
2022-09-17T21:31:15.185Z,1.20
2022-09-17T21:33:44.504Z,1.37
2022-09-17T21:36:14.002Z,1.50
2022-09-17T21:38:42.684Z,1.37
2022-09-17T21:41:12.543Z,1.17
2022-09-17T21:43:40.824Z,1.00
2022-09-17T21:46:10.479Z,1.20
2022-09-17T21:48:45.786Z,1.40
2022-09-17T21:51:15.716Z,1.20
2022-09-17T21:53:44.203Z,1.30
2022-09-17T21:56:13.555Z,1.27
2022-09-17T21:58:42.266Z,1.20
2022-09-17T22:01:19.971Z,1.13
2022-09-17T22:03:49.457Z,1.13
2022-09-17T22:06:19.188Z,1.30
2022-09-17T22:08:47.327Z,1.50
2022-09-17T22:11:17.771Z,1.07
2022-09-17T22:13:53.057Z,1.27
2022-09-17T22:16:21.375Z,1.43
2022-09-17T22:18:52.052Z,1.33
2022-09-17T22:21:22.566Z,1.27
2022-09-17T22:23:51.298Z,1.40
2022-09-17T22:26:21.216Z,1.20
2022-09-17T22:28:49.959Z,1.20
2022-09-17T22:31:18.776Z,1.40
2022-09-17T22:33:48.596Z,1.10
2022-09-17T22:36:20.076Z,1.50
2022-09-17T22:38:50.096Z,1.53
2022-09-17T22:41:19.887Z,1.40
2022-09-17T22:43:48.108Z,1.50
2022-09-17T22:46:19.755Z,1.80
2022-09-17T22:48:48.156Z,1.80
2022-09-17T22:51:17.549Z,1.60
2022-09-17T22:53:45.719Z,1.30
2022-09-17T22:56:15.815Z,1.50
2022-09-17T22:58:43.931Z,1.50
2022-09-17T23:01:15.451Z,1.53
2022-09-17T23:03:44.003Z,1.40
2022-09-17T23:06:14.182Z,1.30
2022-09-17T23:08:43.570Z,1.10
2022-09-17T23:11:17.900Z,1.67
2022-09-17T23:13:45.695Z,1.70
2022-09-17T23:16:13.512Z,1.83
2022-09-17T23:18:41.384Z,1.70
2022-09-17T23:21:13.213Z,1.50
2022-09-17T23:23:44.262Z,1.50
2022-09-17T23:26:14.407Z,1.47
2022-09-17T23:28:42.723Z,1.80
2022-09-17T23:31:12.036Z,1.87
2022-09-17T23:33:40.495Z,1.50
2022-09-17T23:36:12.632Z,1.37
2022-09-17T23:38:41.630Z,1.53
2022-09-17T23:41:14.738Z,1.60
2022-09-17T23:43:43.265Z,1.30
2022-09-17T23:46:11.259Z,1.20
2022-09-17T23:48:39.352Z,2.00
2022-09-17T23:51:07.891Z,1.40
2022-09-17T23:53:36.519Z,2.23
2022-09-17T23:56:06.037Z,1.40
2022-09-17T23:58:35.633Z,1.43
